createdAt,value
2019-01-17T00:00:58.752Z,97017.28
2019-01-17T00:03:44.641Z,97021.37
2019-01-17T00:06:32.143Z,97018.58
2019-01-17T00:09:37.341Z,97007.50
2019-01-17T00:12:24.493Z,97013.54
2019-01-17T00:15:14.357Z,97009.62
2019-01-17T00:17:56.067Z,97022.59
2019-01-17T00:21:01.122Z,97024.23
2019-01-17T00:23:47.400Z,97023.40
2019-01-17T00:26:41.360Z,97013.83
2019-01-17T00:29:31.520Z,97008.61
2019-01-17T00:32:27.702Z,97000.47
2019-01-17T00:35:05.836Z,97008.75
2019-01-17T00:37:52.391Z,96996.36
2019-01-17T00:40:45.661Z,97003.84
2019-01-17T00:43:41.638Z,97003.03
2019-01-17T00:46:28.988Z,97002.95
2019-01-17T00:49:14.856Z,96995.83
2019-01-17T00:52:10.887Z,96998.98
2019-01-17T00:54:57.969Z,97000.91
2019-01-17T00:57:47.900Z,97013.44
2019-01-17T01:00:25.906Z,97002.56
2019-01-17T01:03:19.523Z,97004.61
2019-01-17T01:06:24.606Z,97010.97
2019-01-17T01:09:11.809Z,97011.95
2019-01-17T01:11:57.182Z,97000.86
2019-01-17T01:14:44.293Z,97005.86
2019-01-17T01:17:40.465Z,97008.80
2019-01-17T01:20:29.520Z,97008.64
2019-01-17T01:23:16.819Z,96995.64
2019-01-17T01:26:21.992Z,97002.41
2019-01-17T01:29:21.245Z,97003.34
2019-01-17T01:32:04.209Z,97014.95
2019-01-17T01:35:03.287Z,97001.14
2019-01-17T01:37:53.038Z,97001.03
2019-01-17T01:40:40.084Z,97010.17
2019-01-17T01:43:28.711Z,96995.45
2019-01-17T01:46:24.810Z,96978.42
2019-01-17T01:49:14.582Z,96995.51
2019-01-17T01:52:02.039Z,96994.27
2019-01-17T01:54:29.612Z,96993.20
2019-01-17T01:56:57.369Z,96988.23
2019-01-17T01:59:25.924Z,96974.28
2019-01-17T02:01:53.585Z,96990.59
2019-01-17T02:04:21.204Z,96981.57
2019-01-17T02:06:49.056Z,96988.14
2019-01-17T02:09:16.599Z,96994.30
2019-01-17T02:11:44.244Z,96971.77
2019-01-17T02:14:11.891Z,96962.95
2019-01-17T02:16:39.534Z,96959.33
2019-01-17T02:19:07.213Z,96972.22
2019-01-17T02:21:34.900Z,96978.71
2019-01-17T02:24:02.469Z,96978.86
2019-01-17T02:26:31.117Z,96965.55
2019-01-17T02:28:58.656Z,96979.27
2019-01-17T02:31:26.301Z,96982.20
2019-01-17T02:33:53.830Z,96975.80
2019-01-17T02:36:21.462Z,96981.43
2019-01-17T02:38:49.013Z,96983.27
2019-01-17T02:41:16.722Z,96978.80
2019-01-17T02:43:44.381Z,96949.38
2019-01-17T02:46:11.966Z,96953.69
2019-01-17T02:48:39.489Z,96970.19
2019-01-17T02:51:07.186Z,96965.85
2019-01-17T02:53:34.757Z,96956.44
2019-01-17T02:56:02.388Z,96952.80
2019-01-17T02:58:30.036Z,96953.89
2019-01-17T03:00:57.631Z,96962.16
2019-01-17T03:03:25.187Z,96946.01
2019-01-17T03:05:53.250Z,96955.92
2019-01-17T03:08:20.938Z,96959.06
2019-01-17T03:10:48.502Z,96952.37
2019-01-17T03:13:16.091Z,96956.98
2019-01-17T03:15:43.723Z,96956.19
2019-01-17T03:18:11.323Z,96954.44
2019-01-17T03:20:38.948Z,96958.15
2019-01-17T03:23:06.540Z,96952.00
2019-01-17T03:25:36.055Z,96953.84
2019-01-17T03:28:03.643Z,96945.98
2019-01-17T03:30:31.905Z,96939.55
2019-01-17T03:32:59.514Z,96952.48
2019-01-17T03:35:27.093Z,96945.28
2019-01-17T03:37:54.715Z,96945.95
2019-01-17T03:40:22.337Z,96954.09
2019-01-17T03:42:49.888Z,96938.73
2019-01-17T03:45:17.599Z,96933.59
2019-01-17T03:47:46.016Z,96939.02
2019-01-17T03:50:14.705Z,96924.38
2019-01-17T03:52:42.624Z,96931.28
2019-01-17T03:55:15.792Z,96928.08
2019-01-17T03:57:43.382Z,96922.37
2019-01-17T04:00:16.514Z,96924.44
2019-01-17T04:02:44.083Z,96923.74
2019-01-17T04:05:11.714Z,96922.89
2019-01-17T04:07:39.423Z,96929.54
2019-01-17T04:10:08.751Z,96929.00
2019-01-17T04:12:36.327Z,96926.88
2019-01-17T04:15:04.865Z,96933.69
2019-01-17T04:17:32.522Z,96927.92
2019-01-17T04:20:00.226Z,96923.45
2019-01-17T04:22:27.957Z,96914.05
2019-01-17T04:24:57.438Z,96923.55
2019-01-17T04:27:25.299Z,96931.66
2019-01-17T04:29:53.042Z,96930.23
2019-01-17T04:32:20.827Z,96934.57
2019-01-17T04:34:48.553Z,96937.08
2019-01-17T04:37:16.218Z,96936.41
2019-01-17T04:39:43.914Z,96938.23
2019-01-17T04:42:11.620Z,96936.34
2019-01-17T04:44:39.321Z,96943.98
2019-01-17T04:47:07.038Z,96951.45
2019-01-17T04:49:34.743Z,96937.23
2019-01-17T04:52:02.416Z,96945.43
2019-01-17T04:54:30.091Z,96941.15
2019-01-17T04:56:57.736Z,96944.52
2019-01-17T04:59:25.400Z,96935.52
2019-01-17T05:01:53.112Z,96940.80
2019-01-17T05:04:20.791Z,96951.39
2019-01-17T05:06:48.550Z,96955.79
2019-01-17T05:09:16.204Z,96942.30
2019-01-17T05:11:43.841Z,96945.63
2019-01-17T05:14:11.566Z,96948.13
2019-01-17T05:16:39.231Z,96946.36
2019-01-17T05:19:06.853Z,96939.93
2019-01-17T05:21:34.581Z,96948.77
2019-01-17T05:24:02.951Z,96950.98
2019-01-17T05:26:30.635Z,96941.86
2019-01-17T05:28:58.347Z,96952.03
2019-01-17T05:31:25.963Z,96944.23
2019-01-17T05:33:53.477Z,96946.64
2019-01-17T05:36:21.141Z,96937.17
2019-01-17T05:38:48.679Z,96939.23
2019-01-17T05:41:16.310Z,96945.73
2019-01-17T05:43:43.952Z,96936.03
2019-01-17T05:46:11.723Z,96938.09
2019-01-17T05:48:39.317Z,96934.06
2019-01-17T05:51:06.972Z,96935.43
2019-01-17T05:53:34.524Z,96939.02
2019-01-17T05:56:02.194Z,96950.04
2019-01-17T05:58:29.756Z,96937.52
2019-01-17T06:00:57.530Z,96948.08
2019-01-17T06:03:25.492Z,96934.83
2019-01-17T06:05:53.140Z,96936.80
2019-01-17T06:08:20.704Z,96948.92
2019-01-17T06:10:48.253Z,96952.37
2019-01-17T06:13:15.904Z,96930.68
2019-01-17T06:15:44.009Z,96941.80
2019-01-17T06:18:11.658Z,96943.16
2019-01-17T06:20:39.530Z,96945.89
2019-01-17T06:23:07.232Z,96936.47
2019-01-17T06:25:34.868Z,96933.59
2019-01-17T06:28:02.440Z,96933.94
2019-01-17T06:30:30.138Z,96931.53
2019-01-17T06:32:57.689Z,96933.66
2019-01-17T06:35:25.361Z,96943.28
2019-01-17T06:37:53.014Z,96948.36
2019-01-17T06:40:23.489Z,96953.63
2019-01-17T06:42:51.095Z,96957.77
2019-01-17T06:45:18.767Z,96945.95
2019-01-17T06:47:46.347Z,96958.69
2019-01-17T06:50:14.018Z,96958.63
2019-01-17T06:52:41.600Z,96966.45
2019-01-17T06:55:09.427Z,96975.11
2019-01-17T06:57:37.028Z,96973.17
2019-01-17T07:00:05.716Z,96978.40
2019-01-17T07:02:33.305Z,96981.72
2019-01-17T07:05:01.119Z,96979.91
2019-01-17T07:07:28.750Z,96984.61
2019-01-17T07:09:56.409Z,96973.28
2019-01-17T07:12:24.052Z,96973.22
2019-01-17T07:14:51.758Z,96974.72
2019-01-17T07:17:19.337Z,96967.94
2019-01-17T07:19:47.063Z,96967.43
2019-01-17T07:22:14.686Z,96960.67
2019-01-17T07:24:42.388Z,96969.50
2019-01-17T07:27:10.099Z,96972.27
2019-01-17T07:29:37.874Z,96975.35
2019-01-17T07:32:05.660Z,96976.11
2019-01-17T07:34:33.495Z,96983.13
2019-01-17T07:37:01.143Z,96985.62
2019-01-17T07:39:28.826Z,96980.69
2019-01-17T07:41:56.518Z,96979.92
2019-01-17T07:44:24.218Z,96981.56
2019-01-17T07:46:51.874Z,96982.08
2019-01-17T07:49:19.551Z,96983.09
2019-01-17T07:51:47.265Z,96979.94
2019-01-17T07:54:14.990Z,96981.36
2019-01-17T07:56:42.702Z,96982.10
2019-01-17T07:59:10.466Z,96982.84
2019-01-17T08:01:38.259Z,96980.08
2019-01-17T08:04:05.914Z,96985.52
2019-01-17T08:06:33.662Z,96978.88
2019-01-17T08:09:01.464Z,96986.09
2019-01-17T08:11:29.189Z,96991.94
2019-01-17T08:13:56.885Z,96991.16
2019-01-17T08:16:24.531Z,96996.62
2019-01-17T08:18:52.612Z,97001.46
2019-01-17T08:21:20.224Z,96998.36
2019-01-17T08:23:48.956Z,97006.56
2019-01-17T08:26:16.613Z,97007.53
2019-01-17T08:28:44.202Z,97004.36
2019-01-17T08:31:11.881Z,97007.02
2019-01-17T08:33:39.466Z,97003.69
2019-01-17T08:36:07.154Z,97000.11
2019-01-17T08:38:34.721Z,96995.55
2019-01-17T08:41:02.392Z,96994.32
2019-01-17T08:43:29.929Z,97004.84
2019-01-17T08:45:57.641Z,97004.13
2019-01-17T08:48:25.188Z,97001.62
2019-01-17T08:50:52.801Z,96995.69
2019-01-17T08:53:20.375Z,96997.14
2019-01-17T08:55:48.108Z,96993.75
2019-01-17T08:58:16.182Z,96997.89
2019-01-17T09:00:43.851Z,97002.77
2019-01-17T09:03:12.629Z,96993.90
2019-01-17T09:05:40.556Z,96995.91
2019-01-17T09:08:08.162Z,97001.23
2019-01-17T09:10:35.973Z,97006.05
2019-01-17T09:13:03.801Z,97006.90
2019-01-17T09:15:33.587Z,97007.22
2019-01-17T09:18:01.194Z,97010.28
2019-01-17T09:20:28.926Z,97001.05
2019-01-17T09:22:56.526Z,97009.54
2019-01-17T09:25:24.231Z,96999.52
2019-01-17T09:27:51.922Z,97004.09
2019-01-17T09:30:19.650Z,97014.41
2019-01-17T09:32:47.452Z,97008.72
2019-01-17T09:35:15.564Z,97014.81
2019-01-17T09:37:44.324Z,97017.39
2019-01-17T09:40:16.882Z,97024.86
2019-01-17T09:42:44.674Z,97019.40
2019-01-17T09:45:12.992Z,97023.45
2019-01-17T09:47:40.669Z,97022.09
2019-01-17T09:50:14.951Z,97015.30
2019-01-17T09:52:44.249Z,97013.52
2019-01-17T09:55:15.684Z,97008.91
2019-01-17T09:57:44.410Z,97014.81
2019-01-17T10:00:18.112Z,97005.05
2019-01-17T10:02:45.839Z,96993.42
2019-01-17T10:05:13.615Z,96986.62
2019-01-17T10:07:41.505Z,96991.00
2019-01-17T10:10:11.960Z,96992.80
2019-01-17T10:12:39.550Z,96985.69
2019-01-17T10:15:11.803Z,96980.58
2019-01-17T10:18:17.455Z,96974.22
2019-01-17T10:21:42.088Z,96971.34
2019-01-17T10:24:48.012Z,96976.36
2019-01-17T10:27:45.227Z,96979.05
2019-01-17T10:30:27.883Z,96970.23
2019-01-17T10:33:27.161Z,96965.78
2019-01-17T10:36:44.300Z,96967.59
2019-01-17T10:39:55.326Z,96960.67
2019-01-17T10:42:56.078Z,96955.40
2019-01-17T10:45:54.158Z,96954.93
2019-01-17T10:49:00.190Z,96958.31
2019-01-17T10:51:41.325Z,96952.63
2019-01-17T10:54:53.415Z,96952.81
2019-01-17T10:57:33.049Z,96939.22
2019-01-17T11:00:36.144Z,96934.28
2019-01-17T11:03:25.397Z,96935.52
2019-01-17T11:06:15.383Z,96926.98
2019-01-17T11:09:15.120Z,96922.81
2019-01-17T11:12:20.174Z,96912.94
2019-01-17T11:15:26.091Z,96906.78
2019-01-17T11:18:47.135Z,96902.88
2019-01-17T11:21:58.128Z,96877.57
2019-01-17T11:25:02.979Z,96872.42
2019-01-17T11:28:11.631Z,96875.51
2019-01-17T11:31:17.049Z,96869.77
2019-01-17T11:34:08.776Z,96858.38
2019-01-17T11:37:33.075Z,96859.61
2019-01-17T11:40:19.524Z,96855.86
2019-01-17T11:43:36.721Z,96857.58
2019-01-17T11:46:41.639Z,96847.75
2019-01-17T11:49:37.102Z,96848.48
2019-01-17T11:52:55.761Z,96848.27
2019-01-17T11:56:03.434Z,96843.13
2019-01-17T11:59:33.974Z,96839.05
2019-01-17T12:02:58.674Z,96839.81
2019-01-17T12:05:26.426Z,96819.95
2019-01-17T12:07:54.256Z,96820.41
2019-01-17T12:10:21.924Z,96816.79
2019-01-17T12:12:50.005Z,96824.28
2019-01-17T12:15:17.793Z,96820.87
2019-01-17T12:17:45.505Z,96814.36
2019-01-17T12:20:13.269Z,96805.95
2019-01-17T12:22:40.970Z,96810.74
2019-01-17T12:25:08.718Z,96802.57
2019-01-17T12:27:42.358Z,96796.27
2019-01-17T12:30:10.143Z,96788.80
2019-01-17T12:32:37.693Z,96796.19
2019-01-17T12:35:06.305Z,96787.37
2019-01-17T12:37:35.790Z,96795.05
2019-01-17T12:40:04.480Z,96790.59
2019-01-17T12:42:32.111Z,96785.28
2019-01-17T12:44:59.761Z,96784.93
2019-01-17T12:47:30.291Z,96781.52
2019-01-17T12:49:57.924Z,96767.73
2019-01-17T12:52:25.562Z,96766.05
2019-01-17T12:54:53.370Z,96764.98
2019-01-17T12:57:20.943Z,96767.88
2019-01-17T12:59:48.643Z,96770.64
2019-01-17T13:02:16.243Z,96759.69
2019-01-17T13:04:43.958Z,96758.98
2019-01-17T13:07:11.587Z,96753.44
2019-01-17T13:09:39.243Z,96754.45
2019-01-17T13:12:06.823Z,96747.20
2019-01-17T13:14:36.355Z,96737.29
2019-01-17T13:17:04.040Z,96744.69
2019-01-17T13:19:31.705Z,96749.32
2019-01-17T13:21:59.515Z,96750.81
2019-01-17T13:24:27.188Z,96749.45
2019-01-17T13:27:00.578Z,96750.11
2019-01-17T13:29:24.296Z,96738.56
2019-01-17T13:31:52.033Z,96737.58
2019-01-17T13:34:19.849Z,96735.86
2019-01-17T13:36:47.517Z,96730.31
2019-01-17T13:39:15.089Z,96741.53
2019-01-17T13:41:42.774Z,96745.80
2019-01-17T13:44:10.407Z,96739.02
2019-01-17T13:46:38.106Z,96731.99
2019-01-17T13:49:05.738Z,96747.00
2019-01-17T13:51:33.407Z,96740.98
2019-01-17T13:54:00.986Z,96735.23
2019-01-17T13:56:28.627Z,96739.49
2019-01-17T13:58:56.245Z,96733.74
2019-01-17T14:01:23.913Z,96738.54
2019-01-17T14:03:51.472Z,96729.88
2019-01-17T14:06:19.175Z,96739.36
2019-01-17T14:08:46.733Z,96733.95
2019-01-17T14:11:14.382Z,96738.80
2019-01-17T14:13:41.939Z,96731.47
2019-01-17T14:16:09.669Z,96732.92
2019-01-17T14:18:37.264Z,96732.09
2019-01-17T14:21:04.902Z,96729.31
2019-01-17T14:23:32.518Z,96723.48
2019-01-17T14:26:00.239Z,96727.86
2019-01-17T14:28:27.956Z,96730.98
2019-01-17T14:30:55.800Z,96732.73
2019-01-17T14:33:23.546Z,96737.46
2019-01-17T14:35:51.178Z,96722.56
2019-01-17T14:38:18.862Z,96738.06
2019-01-17T14:40:46.495Z,96743.79
2019-01-17T14:43:14.111Z,96739.86
2019-01-17T14:45:41.655Z,96740.68
2019-01-17T14:48:09.379Z,96730.01
2019-01-17T14:50:40.008Z,96735.34
2019-01-17T14:53:07.848Z,96730.09
2019-01-17T14:55:35.753Z,96733.33
2019-01-17T14:58:03.624Z,96741.80
2019-01-17T15:00:32.522Z,96740.10
2019-01-17T15:03:00.204Z,96738.64
2019-01-17T15:05:27.887Z,96735.86
2019-01-17T15:07:55.501Z,96735.42
2019-01-17T15:10:34.929Z,96740.45
2019-01-17T15:13:02.586Z,96734.27
2019-01-17T15:15:30.234Z,96735.16
2019-01-17T15:17:57.906Z,96735.23
2019-01-17T15:20:25.667Z,96736.38
2019-01-17T15:22:53.374Z,96740.98
2019-01-17T15:25:21.195Z,96737.06
2019-01-17T15:27:51.948Z,96732.13
2019-01-17T15:30:21.778Z,96732.50
2019-01-17T15:32:49.912Z,96729.40
2019-01-17T15:35:17.633Z,96724.19
2019-01-17T15:37:45.349Z,96734.42
2019-01-17T15:40:16.009Z,96730.28
2019-01-17T15:42:45.440Z,96723.69
2019-01-17T15:45:13.264Z,96727.29
2019-01-17T15:47:40.929Z,96738.55
2019-01-17T15:50:11.850Z,96738.27
2019-01-17T15:52:39.535Z,96741.50
2019-01-17T15:55:11.719Z,96740.56
2019-01-17T15:57:42.706Z,96747.53
2019-01-17T16:00:19.884Z,96748.82
2019-01-17T16:02:48.448Z,96746.56
2019-01-17T16:05:16.550Z,96759.00
2019-01-17T16:07:44.405Z,96758.05
2019-01-17T16:10:13.678Z,96754.47
2019-01-17T16:12:41.750Z,96760.03
2019-01-17T16:15:15.150Z,96757.30
2019-01-17T16:17:43.691Z,96761.67
2019-01-17T16:20:12.577Z,96763.77
2019-01-17T16:22:40.615Z,96754.22
2019-01-17T16:25:11.451Z,96751.01
2019-01-17T16:27:41.767Z,96762.88
2019-01-17T16:30:15.795Z,96756.10
2019-01-17T16:32:43.924Z,96758.55
2019-01-17T16:35:17.943Z,96764.95
2019-01-17T16:37:45.917Z,96762.16
2019-01-17T16:40:17.057Z,96753.89
2019-01-17T16:42:44.930Z,96759.44
2019-01-17T16:45:14.385Z,96759.91
2019-01-17T16:47:42.623Z,96758.73
2019-01-17T16:50:13.618Z,96763.06
2019-01-17T16:52:41.801Z,96750.75
2019-01-17T16:55:10.263Z,96758.88
2019-01-17T16:57:38.096Z,96758.20
2019-01-17T17:00:14.402Z,96753.03
2019-01-17T17:02:42.914Z,96768.92
2019-01-17T17:05:10.989Z,96766.58
2019-01-17T17:07:39.392Z,96763.55
2019-01-17T17:10:08.423Z,96767.89
2019-01-17T17:12:36.120Z,96766.47
2019-01-17T17:15:05.177Z,96772.67
2019-01-17T17:17:33.337Z,96765.03
2019-01-17T17:20:01.315Z,96776.09
2019-01-17T17:22:29.568Z,96768.20
2019-01-17T17:24:57.486Z,96776.46
2019-01-17T17:27:25.845Z,96771.02
2019-01-17T17:29:57.052Z,96771.56
2019-01-17T17:32:25.063Z,96770.45
2019-01-17T17:34:53.721Z,96773.50
2019-01-17T17:37:21.886Z,96775.83
2019-01-17T17:39:49.956Z,96763.77
2019-01-17T17:42:17.760Z,96776.13
2019-01-17T17:44:45.806Z,96767.11
2019-01-17T17:47:13.750Z,96771.27
2019-01-17T17:49:41.729Z,96764.73
2019-01-17T17:52:09.546Z,96762.37
2019-01-17T17:54:40.059Z,96763.70
2019-01-17T17:57:08.099Z,96765.96
2019-01-17T17:59:36.136Z,96764.39
2019-01-17T18:02:20.800Z,96762.79
2019-01-17T18:05:00.448Z,96768.27
2019-01-17T18:07:36.806Z,96769.47
2019-01-17T18:10:12.060Z,96774.64
2019-01-17T18:12:43.081Z,96781.61
2019-01-17T18:15:15.120Z,96770.14
2019-01-17T18:18:16.324Z,96773.33
2019-01-17T18:20:48.276Z,96782.55
2019-01-17T18:23:21.475Z,96785.39
2019-01-17T18:26:48.692Z,96786.50
2019-01-17T18:29:22.861Z,96787.05
2019-01-17T18:32:01.327Z,96787.88
2019-01-17T18:34:31.294Z,96786.91
2019-01-17T18:37:19.659Z,96788.91
2019-01-17T18:39:47.499Z,96787.80
2019-01-17T18:42:15.667Z,96796.49
2019-01-17T18:44:54.702Z,96806.11
2019-01-17T18:47:26.665Z,96791.61
2019-01-17T18:49:54.662Z,96799.80
2019-01-17T18:52:22.859Z,96797.33
2019-01-17T18:54:50.744Z,96797.14
2019-01-17T18:57:19.231Z,96797.72
2019-01-17T18:59:47.127Z,96798.92
2019-01-17T19:02:15.106Z,96797.06
2019-01-17T19:04:43.995Z,96809.36
2019-01-17T19:07:11.955Z,96798.95
2019-01-17T19:09:39.949Z,96798.30
2019-01-17T19:12:08.075Z,96806.60
2019-01-17T19:14:35.923Z,96811.61
2019-01-17T19:17:04.600Z,96814.81
2019-01-17T19:19:32.840Z,96813.63
2019-01-17T19:22:00.781Z,96817.17
2019-01-17T19:24:28.490Z,96813.84
2019-01-17T19:26:56.279Z,96817.52
2019-01-17T19:29:25.769Z,96820.84
2019-01-17T19:31:53.677Z,96821.47
2019-01-17T19:34:21.585Z,96832.41
2019-01-17T19:36:49.607Z,96831.05
2019-01-17T19:39:17.336Z,96832.14
2019-01-17T19:41:45.277Z,96828.09
2019-01-17T19:44:13.090Z,96830.72
2019-01-17T19:46:41.628Z,96831.67
2019-01-17T19:49:09.456Z,96833.30
2019-01-17T19:51:37.583Z,96834.77
2019-01-17T19:54:05.606Z,96839.70
2019-01-17T19:56:35.199Z,96830.58
2019-01-17T19:59:03.355Z,96819.69
2019-01-17T20:01:31.096Z,96833.28
2019-01-17T20:03:59.092Z,96828.98
2019-01-17T20:06:27.137Z,96835.33
2019-01-17T20:08:57.436Z,96832.70
2019-01-17T20:11:26.598Z,96834.27
2019-01-17T20:13:55.079Z,96831.52
2019-01-17T20:16:23.238Z,96822.94
2019-01-17T20:18:51.779Z,96834.30
2019-01-17T20:21:19.644Z,96835.92
2019-01-17T20:23:47.695Z,96817.50
2019-01-17T20:26:15.767Z,96831.30
2019-01-17T20:28:43.643Z,96834.27
2019-01-17T20:31:14.521Z,96836.38
2019-01-17T20:33:42.817Z,96830.53
2019-01-17T20:36:10.778Z,96851.92
2019-01-17T20:38:38.855Z,96846.14
2019-01-17T20:41:06.971Z,96839.08
2019-01-17T20:43:34.831Z,96833.94
2019-01-17T20:46:02.672Z,96842.56
2019-01-17T20:48:36.450Z,96834.28
2019-01-17T20:51:04.167Z,96844.72
2019-01-17T20:53:31.950Z,96842.48
2019-01-17T20:56:01.604Z,96837.77
2019-01-17T20:58:29.500Z,96850.38
2019-01-17T21:01:21.687Z,96846.69
2019-01-17T21:03:49.434Z,96838.66
2019-01-17T21:06:17.245Z,96853.00
2019-01-17T21:08:48.909Z,96857.50
2019-01-17T21:11:22.794Z,96857.33
2019-01-17T21:13:51.113Z,96856.86
2019-01-17T21:16:19.416Z,96859.88
2019-01-17T21:18:49.338Z,96861.72
2019-01-17T21:21:23.577Z,96860.73
2019-01-17T21:23:52.870Z,96855.55
2019-01-17T21:26:28.540Z,96859.03
2019-01-17T21:28:56.228Z,96859.10
2019-01-17T21:31:24.164Z,96861.37
2019-01-17T21:33:51.872Z,96865.77
2019-01-17T21:36:25.630Z,96879.34
2019-01-17T21:38:53.397Z,96864.42
2019-01-17T21:41:21.662Z,96879.04
2019-01-17T21:43:50.021Z,96880.26
2019-01-17T21:46:18.861Z,96878.42
2019-01-17T21:48:46.571Z,96881.82
2019-01-17T21:51:17.533Z,96880.43
2019-01-17T21:53:46.514Z,96888.89
2019-01-17T21:56:14.177Z,96884.03
2019-01-17T21:58:42.061Z,96889.67
2019-01-17T22:01:09.833Z,96896.16
2019-01-17T22:03:37.507Z,96895.53
2019-01-17T22:06:07.872Z,96896.47
2019-01-17T22:08:35.860Z,96909.33
2019-01-17T22:11:03.595Z,96912.83
2019-01-17T22:13:31.249Z,96915.77
2019-01-17T22:15:58.996Z,96933.44
2019-01-17T22:18:26.594Z,96931.42
2019-01-17T22:20:54.347Z,96927.63
2019-01-17T22:23:21.924Z,96927.84
2019-01-17T22:25:49.599Z,96940.22
2019-01-17T22:28:17.150Z,96947.39
2019-01-17T22:30:44.848Z,96950.45
2019-01-17T22:33:12.422Z,96953.46
2019-01-17T22:35:40.212Z,96951.53
2019-01-17T22:38:07.959Z,96951.63
2019-01-17T22:40:35.642Z,96957.01
2019-01-17T22:43:03.973Z,96950.38
2019-01-17T22:45:31.756Z,96957.66
2019-01-17T22:47:59.474Z,96952.28
2019-01-17T22:50:27.274Z,96969.73
2019-01-17T22:52:55.076Z,96963.44
2019-01-17T22:55:22.804Z,96960.99
2019-01-17T22:57:50.583Z,96969.13
2019-01-17T23:01:12.136Z,96974.77
2019-01-17T23:03:42.185Z,96974.47
2019-01-17T23:06:09.833Z,96979.78
2019-01-17T23:08:37.546Z,96972.14
2019-01-17T23:11:05.292Z,96969.52
2019-01-17T23:13:33.136Z,96969.45
2019-01-17T23:16:00.857Z,96968.03
2019-01-17T23:18:28.480Z,96961.65
2019-01-17T23:20:56.151Z,96967.77
2019-01-17T23:23:23.726Z,96959.56
2019-01-17T23:25:51.378Z,96953.99
2019-01-17T23:28:18.952Z,96950.98
2019-01-17T23:30:46.622Z,96955.77
2019-01-17T23:33:14.183Z,96954.55
2019-01-17T23:35:41.867Z,96959.24
2019-01-17T23:38:09.440Z,96952.45
2019-01-17T23:40:37.070Z,96956.00
2019-01-17T23:43:04.716Z,96949.84
2019-01-17T23:45:32.471Z,96939.84
2019-01-17T23:48:00.130Z,96951.06
2019-01-17T23:50:27.756Z,96953.76
2019-01-17T23:52:55.376Z,96960.95
2019-01-17T23:55:23.062Z,96960.30
2019-01-17T23:57:50.958Z,96956.22
